Tabor, Czech Republic
Current Conditions -  °F | °C
As of 1:00 PM on Sunday 21 Dec 2014 (Local Time) from LKCV Reporting Station
Broken Clouds Broken Clouds  
Wind Chill: 35°   Ceiling: 6000
Heat Index: 43°   Visibility: 6mi
Dew Point: 34°   Wind: 16mph
Humidity: 70%   Direction: 270°W
Pressure: 30.33"   Gusts: NA
Location:  49.42°N, 14.66°E
Report Text: LKCV 211100Z 27014KT 9999 SCT040 BKN060 06/01 Q1027 NOSIG
Loading
Personal Weather Stations






























Interactive Weather Map New forecast layout! Learn more

10-Day Weather Forecast

Advertisements
Track Severe Weather on mobile